sensor_id;sensor_type;location;lat;lon;timestamp;pressure;altitude;pressure_sealevel;temperature;humidity
44992;BME280;56865;51.618;7.406;2023-06-22T00:01:52;101098.75;;;35.84;nan
44992;BME280;56865;51.618;7.406;2023-06-22T00:04:25;101090.69;;;35.98;nan
44992;BME280;56865;51.618;7.406;2023-06-22T00:06:54;101096.03;;;35.85;nan
44992;BME280;56865;51.618;7.406;2023-06-22T00:09:24;101100.16;;;35.89;nan
44992;BME280;56865;51.618;7.406;2023-06-22T00:11:54;101088.03;;;35.98;nan
44992;BME280;56865;51.618;7.406;2023-06-22T00:14:23;101077.88;;;35.92;nan
44992;BME280;56865;51.618;7.406;2023-06-22T00:16:53;101089.84;;;35.98;nan
44992;BME280;56865;51.618;7.406;2023-06-22T00:19:28;101096.03;;;35.85;nan
44992;BME280;56865;51.618;7.406;2023-06-22T00:21:59;101104.19;;;35.82;nan
44992;BME280;56865;51.618;7.406;2023-06-22T00:24:30;101104.44;;;35.79;nan
44992;BME280;56865;51.618;7.406;2023-06-22T00:26:59;101098.06;;;35.82;nan
44992;BME280;56865;51.618;7.406;2023-06-22T00:29:29;101101.03;;;35.77;nan
44992;BME280;56865;51.618;7.406;2023-06-22T00:31:59;101098.31;;;35.66;nan
44992;BME280;56865;51.618;7.406;2023-06-22T00:34:31;101096.91;;;35.73;nan
44992;BME280;56865;51.618;7.406;2023-06-22T00:37:01;101100.63;;;35.70;nan
44992;BME280;56865;51.618;7.406;2023-06-22T00:39:31;101096.22;;;35.82;nan
44992;BME280;56865;51.618;7.406;2023-06-22T00:42:01;101097.81;;;35.85;nan
44992;BME280;56865;51.618;7.406;2023-06-22T00:44:30;101102.34;;;35.71;nan
44992;BME280;56865;51.618;7.406;2023-06-22T00:47:00;101102.72;;;35.78;nan
44992;BME280;56865;51.618;7.406;2023-06-22T00:49:32;101092.75;;;35.82;nan
44992;BME280;56865;51.618;7.406;2023-06-22T00:52:02;101093.81;;;35.79;nan
44992;BME280;56865;51.618;7.406;2023-06-22T00:54:35;101091.22;;;35.66;nan
44992;BME280;56865;51.618;7.406;2023-06-22T00:57:05;101094.56;;;35.44;nan
44992;BME280;56865;51.618;7.406;2023-06-22T00:59:38;101090.31;;;35.41;nan
44992;BME280;56865;51.618;7.406;2023-06-22T01:02:08;101081.81;;;35.49;nan
44992;BME280;56865;51.618;7.406;2023-06-22T01:04:40;101090.84;;;35.34;nan
44992;BME280;56865;51.618;7.406;2023-06-22T01:07:11;101097.22;;;35.44;nan
44992;BME280;56865;51.618;7.406;2023-06-22T01:09:46;101087.22;;;35.35;nan
44992;BME280;56865;51.618;7.406;2023-06-22T01:12:18;101090.66;;;35.37;nan
44992;BME280;56865;51.618;7.406;2023-06-22T01:14:50;101094.44;;;35.33;nan
44992;BME280;56865;51.618;7.406;2023-06-22T01:17:21;101095.31;;;35.46;nan
44992;BME280;56865;51.618;7.406;2023-06-22T01:19:55;101097.41;;;35.28;nan
44992;BME280;56865;51.618;7.406;2023-06-22T01:22:26;101090.09;;;35.44;nan
44992;BME280;56865;51.618;7.406;2023-06-22T01:24:59;101089.34;;;35.29;nan
44992;BME280;56865;51.618;7.406;2023-06-22T01:27:37;101095.41;;;35.44;nan
44992;BME280;56865;51.618;7.406;2023-06-22T01:30:15;101087.13;;;35.49;nan
44992;BME280;56865;51.618;7.406;2023-06-22T01:32:45;101086.69;;;35.55;nan
44992;BME280;56865;51.618;7.406;2023-06-22T01:35:16;101075.31;;;35.53;nan
44992;BME280;56865;51.618;7.406;2023-06-22T01:37:46;101074.31;;;35.43;nan
44992;BME280;56865;51.618;7.406;2023-06-22T01:40:16;101070.06;;;35.27;nan
44992;BME280;56865;51.618;7.406;2023-06-22T01:42:46;101071.53;;;35.31;nan
44992;BME280;56865;51.618;7.406;2023-06-22T01:45:19;101071.75;;;35.41;nan
44992;BME280;56865;51.618;7.406;2023-06-22T01:47:49;101067.53;;;35.39;nan
44992;BME280;56865;51.618;7.406;2023-06-22T01:50:19;101069.94;;;35.29;nan
44992;BME280;56865;51.618;7.406;2023-06-22T01:52:48;101058.91;;;35.35;nan
44992;BME280;56865;51.618;7.406;2023-06-22T01:55:18;101059.75;;;35.36;nan
44992;BME280;56865;51.618;7.406;2023-06-22T01:57:48;101065.72;;;35.26;nan
44992;BME280;56865;51.618;7.406;2023-06-22T02:00:21;101061.16;;;35.15;nan
44992;BME280;56865;51.618;7.406;2023-06-22T02:02:53;101071.88;;;35.40;nan
44992;BME280;56865;51.618;7.406;2023-06-22T02:05:26;101070.34;;;35.36;nan
44992;BME280;56865;51.618;7.406;2023-06-22T02:08:00;101080.34;;;35.19;nan
44992;BME280;56865;51.618;7.406;2023-06-22T02:10:31;101068.41;;;35.01;nan
44992;BME280;56865;51.618;7.406;2023-06-22T02:13:02;101080.06;;;35.11;nan
44992;BME280;56865;51.618;7.406;2023-06-22T02:15:35;101066.81;;;35.11;nan
44992;BME280;56865;51.618;7.406;2023-06-22T02:18:05;101082.50;;;35.01;nan
44992;BME280;56865;51.618;7.406;2023-06-22T02:20:36;101072.44;;;35.06;nan
44992;BME280;56865;51.618;7.406;2023-06-22T02:23:06;101067.13;;;35.06;nan
44992;BME280;56865;51.618;7.406;2023-06-22T02:25:36;101074.13;;;34.94;nan
44992;BME280;56865;51.618;7.406;2023-06-22T02:28:06;101065.97;;;34.97;nan
44992;BME280;56865;51.618;7.406;2023-06-22T02:30:39;101066.09;;;34.96;nan
44992;BME280;56865;51.618;7.406;2023-06-22T02:33:08;101069.38;;;34.99;nan
44992;BME280;56865;51.618;7.406;2023-06-22T02:35:38;101068.72;;;35.09;nan
44992;BME280;56865;51.618;7.406;2023-06-22T02:38:12;101063.53;;;34.94;nan
44992;BME280;56865;51.618;7.406;2023-06-22T02:40:41;101068.09;;;34.92;nan
44992;BME280;56865;51.618;7.406;2023-06-22T02:43:11;101059.84;;;34.97;nan
44992;BME280;56865;51.618;7.406;2023-06-22T02:45:44;101057.06;;;34.98;nan
44992;BME280;56865;51.618;7.406;2023-06-22T02:48:13;101054.19;;;35.02;nan
44992;BME280;56865;51.618;7.406;2023-06-22T02:50:43;101057.03;;;35.11;nan
44992;BME280;56865;51.618;7.406;2023-06-22T02:53:13;101049.97;;;34.99;nan
44992;BME280;56865;51.618;7.406;2023-06-22T02:55:43;101053.13;;;35.04;nan
44992;BME280;56865;51.618;7.406;2023-06-22T02:58:12;101048.59;;;34.93;nan
44992;BME280;56865;51.618;7.406;2023-06-22T03:00:45;101053.38;;;34.88;nan
44992;BME280;56865;51.618;7.406;2023-06-22T03:03:19;101053.47;;;34.99;nan
44992;BME280;56865;51.618;7.406;2023-06-22T03:05:49;101049.66;;;35.04;nan
44992;BME280;56865;51.618;7.406;2023-06-22T03:08:19;101052.59;;;34.99;nan
44992;BME280;56865;51.618;7.406;2023-06-22T03:10:49;101052.41;;;35.02;nan
44992;BME280;56865;51.618;7.406;2023-06-22T03:13:19;101050.41;;;35.06;nan
44992;BME280;56865;51.618;7.406;2023-06-22T03:15:53;101046.03;;;35.05;nan
44992;BME280;56865;51.618;7.406;2023-06-22T03:18:23;101049.94;;;35.12;nan
44992;BME280;56865;51.618;7.406;2023-06-22T03:20:53;101043.91;;;35.10;nan
44992;BME280;56865;51.618;7.406;2023-06-22T03:23:23;101046.00;;;35.18;nan
44992;BME280;56865;51.618;7.406;2023-06-22T03:25:52;101037.16;;;35.06;nan
44992;BME280;56865;51.618;7.406;2023-06-22T03:28:22;101042.97;;;35.11;nan
44992;BME280;56865;51.618;7.406;2023-06-22T03:30:56;101036.50;;;35.02;nan
44992;BME280;56865;51.618;7.406;2023-06-22T03:33:26;101043.72;;;34.87;nan
44992;BME280;56865;51.618;7.406;2023-06-22T03:35:56;101031.53;;;34.97;nan
44992;BME280;56865;51.618;7.406;2023-06-22T03:38:26;101038.81;;;35.07;nan
44992;BME280;56865;51.618;7.406;2023-06-22T03:40:56;101041.38;;;34.95;nan
44992;BME280;56865;51.618;7.406;2023-06-22T03:43:26;101041.59;;;34.92;nan
44992;BME280;56865;51.618;7.406;2023-06-22T03:45:58;101033.84;;;34.63;nan
44992;BME280;56865;51.618;7.406;2023-06-22T03:48:29;101029.06;;;34.94;nan
44992;BME280;56865;51.618;7.406;2023-06-22T03:50:59;101033.63;;;35.05;nan
44992;BME280;56865;51.618;7.406;2023-06-22T03:53:29;101040.31;;;34.98;nan
44992;BME280;56865;51.618;7.406;2023-06-22T03:55:59;101041.06;;;35.00;nan
44992;BME280;56865;51.618;7.406;2023-06-22T03:58:29;101030.56;;;34.98;nan
44992;BME280;56865;51.618;7.406;2023-06-22T04:01:02;101028.66;;;35.01;nan
44992;BME280;56865;51.618;7.406;2023-06-22T04:03:33;101014.97;;;35.07;nan
44992;BME280;56865;51.618;7.406;2023-06-22T04:06:03;101018.59;;;35.06;nan
44992;BME280;56865;51.618;7.406;2023-06-22T04:08:33;101021.53;;;35.14;nan
44992;BME280;56865;51.618;7.406;2023-06-22T04:11:02;101017.06;;;35.14;nan
44992;BME280;56865;51.618;7.406;2023-06-22T04:13:32;101007.25;;;35.04;nan
44992;BME280;56865;51.618;7.406;2023-06-22T04:16:05;101004.78;;;35.13;nan
44992;BME280;56865;51.618;7.406;2023-06-22T04:18:35;100998.75;;;35.11;nan
44992;BME280;56865;51.618;7.406;2023-06-22T04:21:04;100999.19;;;35.05;nan
44992;BME280;56865;51.618;7.406;2023-06-22T04:23:34;101008.94;;;34.92;nan
44992;BME280;56865;51.618;7.406;2023-06-22T04:26:04;101017.19;;;35.13;nan
44992;BME280;56865;51.618;7.406;2023-06-22T04:28:34;101016.75;;;35.19;nan
44992;BME280;56865;51.618;7.406;2023-06-22T04:31:06;101018.97;;;35.25;nan
44992;BME280;56865;51.618;7.406;2023-06-22T04:33:36;101014.44;;;35.02;nan
44992;BME280;56865;51.618;7.406;2023-06-22T04:36:07;101020.41;;;35.29;nan
44992;BME280;56865;51.618;7.406;2023-06-22T04:38:40;101013.53;;;35.27;nan
44992;BME280;56865;51.618;7.406;2023-06-22T04:41:10;101009.31;;;35.24;nan
44992;BME280;56865;51.618;7.406;2023-06-22T04:43:50;101015.13;;;35.29;nan
44992;BME280;56865;51.618;7.406;2023-06-22T04:46:23;101015.00;;;35.44;nan
44992;BME280;56865;51.618;7.406;2023-06-22T04:48:53;101019.25;;;35.46;nan
44992;BME280;56865;51.618;7.406;2023-06-22T04:51:23;101015.84;;;35.44;nan
44992;BME280;56865;51.618;7.406;2023-06-22T04:53:57;101010.66;;;35.43;nan
44992;BME280;56865;51.618;7.406;2023-06-22T04:56:27;101004.63;;;35.41;nan
44992;BME280;56865;51.618;7.406;2023-06-22T04:58:57;101002.72;;;35.43;nan
44992;BME280;56865;51.618;7.406;2023-06-22T05:01:30;101003.66;;;35.42;nan
44992;BME280;56865;51.618;7.406;2023-06-22T05:04:01;100996.13;;;35.49;nan
44992;BME280;56865;51.618;7.406;2023-06-22T05:06:33;100991.34;;;35.41;nan
44992;BME280;56865;51.618;7.406;2023-06-22T05:09:06;100998.88;;;35.47;nan
44992;BME280;56865;51.618;7.406;2023-06-22T05:11:36;100992.84;;;35.45;nan
44992;BME280;56865;51.618;7.406;2023-06-22T05:14:05;101004.91;;;35.49;nan
44992;BME280;56865;51.618;7.406;2023-06-22T05:16:37;101008.03;;;35.30;nan
44992;BME280;56865;51.618;7.406;2023-06-22T05:19:07;101014.78;;;35.47;nan
44992;BME280;56865;51.618;7.406;2023-06-22T05:21:37;101019.63;;;35.53;nan
44992;BME280;56865;51.618;7.406;2023-06-22T05:24:07;101017.53;;;35.45;nan
44992;BME280;56865;51.618;7.406;2023-06-22T05:26:37;101024.75;;;35.43;nan
44992;BME280;56865;51.618;7.406;2023-06-22T05:29:20;101016.81;;;35.43;nan
44992;BME280;56865;51.618;7.406;2023-06-22T05:31:54;101009.19;;;35.63;nan
44992;BME280;56865;51.618;7.406;2023-06-22T05:34:23;101002.09;;;35.63;nan
44992;BME280;56865;51.618;7.406;2023-06-22T05:36:53;101008.06;;;35.54;nan
44992;BME280;56865;51.618;7.406;2023-06-22T05:39:26;101015.47;;;35.62;nan
44992;BME280;56865;51.618;7.406;2023-06-22T05:41:55;101032.22;;;35.25;nan
44992;BME280;56865;51.618;7.406;2023-06-22T05:44:25;101039.50;;;35.72;nan
44992;BME280;56865;51.618;7.406;2023-06-22T05:46:57;101032.81;;;35.79;nan
44992;BME280;56865;51.618;7.406;2023-06-22T05:49:27;101041.22;;;35.73;nan
44992;BME280;56865;51.618;7.406;2023-06-22T05:51:59;101043.13;;;35.71;nan
44992;BME280;56865;51.618;7.406;2023-06-22T05:54:29;101029.53;;;35.75;nan
44992;BME280;56865;51.618;7.406;2023-06-22T05:56:59;101042.34;;;35.57;nan
44992;BME280;56865;51.618;7.406;2023-06-22T05:59:29;101046.84;;;35.68;nan
44992;BME280;56865;51.618;7.406;2023-06-22T06:02:01;101033.41;;;35.83;nan
44992;BME280;56865;51.618;7.406;2023-06-22T06:04:31;101042.38;;;35.31;nan
44992;BME280;56865;51.618;7.406;2023-06-22T06:07:01;101048.03;;;35.64;nan
44992;BME280;56865;51.618;7.406;2023-06-22T06:09:31;101046.16;;;35.90;nan
44992;BME280;56865;51.618;7.406;2023-06-22T06:12:00;101040.00;;;35.77;nan
44992;BME280;56865;51.618;7.406;2023-06-22T06:14:30;101040.47;;;35.95;nan
44992;BME280;56865;51.618;7.406;2023-06-22T06:17:03;101041.84;;;36.01;nan
44992;BME280;56865;51.618;7.406;2023-06-22T06:19:33;101046.41;;;35.99;nan
44992;BME280;56865;51.618;7.406;2023-06-22T06:22:03;101045.56;;;35.74;nan
44992;BME280;56865;51.618;7.406;2023-06-22T06:24:32;101037.16;;;36.04;nan
44992;BME280;56865;51.618;7.406;2023-06-22T06:27:02;101034.59;;;35.91;nan
44992;BME280;56865;51.618;7.406;2023-06-22T06:29:32;101031.84;;;36.04;nan
44992;BME280;56865;51.618;7.406;2023-06-22T06:32:04;101032.13;;;36.24;nan
44992;BME280;56865;51.618;7.406;2023-06-22T06:34:35;101030.25;;;35.53;nan
44992;BME280;56865;51.618;7.406;2023-06-22T06:37:05;101022.88;;;35.94;nan
44992;BME280;56865;51.618;7.406;2023-06-22T06:39:34;101023.78;;;36.17;nan
44992;BME280;56865;51.618;7.406;2023-06-22T06:42:04;101029.47;;;36.24;nan
44992;BME280;56865;51.618;7.406;2023-06-22T06:44:34;101022.00;;;36.18;nan
44992;BME280;56865;51.618;7.406;2023-06-22T06:47:07;101021.16;;;36.28;nan
44992;BME280;56865;51.618;7.406;2023-06-22T06:49:37;101016.72;;;36.29;nan
44992;BME280;56865;51.618;7.406;2023-06-22T06:52:06;101015.44;;;35.99;nan
44992;BME280;56865;51.618;7.406;2023-06-22T06:54:36;101020.22;;;36.30;nan
44992;BME280;56865;51.618;7.406;2023-06-22T06:57:06;101019.44;;;36.40;nan
44992;BME280;56865;51.618;7.406;2023-06-22T06:59:37;101019.13;;;36.32;nan
44992;BME280;56865;51.618;7.406;2023-06-22T07:02:09;101012.91;;;35.98;nan
44992;BME280;56865;51.618;7.406;2023-06-22T07:04:39;101037.19;;;44.76;nan
44992;BME280;56865;51.618;7.406;2023-06-22T07:07:10;101042.81;;;45.76;nan
44992;BME280;56865;51.618;7.406;2023-06-22T07:09:39;101051.88;;;46.51;nan
44992;BME280;56865;51.618;7.406;2023-06-22T07:12:09;101046.22;;;46.76;nan
44992;BME280;56865;51.618;7.406;2023-06-22T07:14:39;101052.75;;;47.83;nan
44992;BME280;56865;51.618;7.406;2023-06-22T07:17:11;101050.22;;;48.32;nan
44992;BME280;56865;51.618;7.406;2023-06-22T07:19:41;101047.28;;;48.05;nan
44992;BME280;56865;51.618;7.406;2023-06-22T07:22:11;101047.88;;;47.29;nan
44992;BME280;56865;51.618;7.406;2023-06-22T07:24:41;101039.78;;;49.33;nan
44992;BME280;56865;51.618;7.406;2023-06-22T07:27:11;101032.38;;;48.09;nan
44992;BME280;56865;51.618;7.406;2023-06-22T07:29:43;101036.66;;;50.09;nan
44992;BME280;56865;51.618;7.406;2023-06-22T07:32:16;101038.16;;;52.11;nan
44992;BME280;56865;51.618;7.406;2023-06-22T07:34:46;101030.63;;;49.87;nan
44992;BME280;56865;51.618;7.406;2023-06-22T07:37:15;101031.03;;;50.63;nan
44992;BME280;56865;51.618;7.406;2023-06-22T07:39:45;101041.41;;;51.76;nan
44992;BME280;56865;51.618;7.406;2023-06-22T07:42:17;101034.16;;;49.34;nan
44992;BME280;56865;51.618;7.406;2023-06-22T07:44:47;101030.91;;;47.35;nan
44992;BME280;56865;51.618;7.406;2023-06-22T07:47:20;101022.78;;;46.32;nan
44992;BME280;56865;51.618;7.406;2023-06-22T07:49:52;101008.91;;;45.12;nan
44992;BME280;56865;51.618;7.406;2023-06-22T07:52:22;101010.03;;;45.87;nan
44992;BME280;56865;51.618;7.406;2023-06-22T07:54:52;101004.22;;;45.14;nan
44992;BME280;56865;51.618;7.406;2023-06-22T07:57:21;100998.09;;;44.49;nan
44992;BME280;56865;51.618;7.406;2023-06-22T07:59:59;100991.56;;;44.91;nan
44992;BME280;56865;51.618;7.406;2023-06-22T08:02:33;100986.84;;;44.93;nan
44992;BME280;56865;51.618;7.406;2023-06-22T08:05:04;100987.88;;;44.84;nan
44992;BME280;56865;51.618;7.406;2023-06-22T08:07:45;100987.75;;;45.09;nan
44992;BME280;56865;51.618;7.406;2023-06-22T08:10:16;100978.66;;;45.10;nan
44992;BME280;56865;51.618;7.406;2023-06-22T08:12:46;100975.13;;;45.09;nan
44992;BME280;56865;51.618;7.406;2023-06-22T08:15:15;100985.41;;;45.06;nan
44992;BME280;56865;51.618;7.406;2023-06-22T08:17:48;100986.88;;;45.63;nan
44992;BME280;56865;51.618;7.406;2023-06-22T08:20:19;100988.69;;;44.93;nan
44992;BME280;56865;51.618;7.406;2023-06-22T08:22:49;100984.59;;;45.90;nan
44992;BME280;56865;51.618;7.406;2023-06-22T08:25:19;100990.13;;;46.56;nan
44992;BME280;56865;51.618;7.406;2023-06-22T08:27:49;100971.50;;;44.62;nan
44992;BME280;56865;51.618;7.406;2023-06-22T08:30:19;100962.44;;;45.65;nan
44992;BME280;56865;51.618;7.406;2023-06-22T08:32:51;100958.88;;;44.63;nan
44992;BME280;56865;51.618;7.406;2023-06-22T08:35:22;100968.59;;;45.04;nan
44992;BME280;56865;51.618;7.406;2023-06-22T08:37:52;100957.47;;;45.07;nan
44992;BME280;56865;51.618;7.406;2023-06-22T08:40:23;100953.41;;;44.88;nan
44992;BME280;56865;51.618;7.406;2023-06-22T08:42:53;100940.84;;;45.03;nan
44992;BME280;56865;51.618;7.406;2023-06-22T08:45:23;100949.50;;;45.98;nan
44992;BME280;56865;51.618;7.406;2023-06-22T08:47:57;100940.25;;;45.63;nan
44992;BME280;56865;51.618;7.406;2023-06-22T08:50:27;100931.53;;;45.52;nan
44992;BME280;56865;51.618;7.406;2023-06-22T08:52:57;100928.72;;;45.69;nan
44992;BME280;56865;51.618;7.406;2023-06-22T08:55:27;100925.28;;;45.60;nan
44992;BME280;56865;51.618;7.406;2023-06-22T08:57:57;100926.69;;;44.86;nan
44992;BME280;56865;51.618;7.406;2023-06-22T09:00:29;100912.09;;;39.78;nan
44992;BME280;56865;51.618;7.406;2023-06-22T09:03:04;100907.47;;;39.41;nan
44992;BME280;56865;51.618;7.406;2023-06-22T09:05:43;100905.91;;;39.48;nan
44992;BME280;56865;51.618;7.406;2023-06-22T09:08:13;100897.22;;;39.37;nan
44992;BME280;56865;51.618;7.406;2023-06-22T09:10:43;100903.09;;;39.60;nan
44992;BME280;56865;51.618;7.406;2023-06-22T09:13:12;100898.91;;;39.47;nan
44992;BME280;56865;51.618;7.406;2023-06-22T09:15:42;100898.16;;;39.94;nan
44992;BME280;56865;51.618;7.406;2023-06-22T09:18:15;100902.13;;;40.28;nan
44992;BME280;56865;51.618;7.406;2023-06-22T09:20:45;100892.53;;;40.35;nan
44992;BME280;56865;51.618;7.406;2023-06-22T09:23:15;100895.06;;;40.37;nan
44992;BME280;56865;51.618;7.406;2023-06-22T09:25:44;100892.53;;;40.35;nan
44992;BME280;56865;51.618;7.406;2023-06-22T09:28:14;100895.19;;;40.91;nan
44992;BME280;56865;51.618;7.406;2023-06-22T09:30:44;100897.50;;;41.22;nan
44992;BME280;56865;51.618;7.406;2023-06-22T09:33:17;100900.56;;;41.27;nan
44992;BME280;56865;51.618;7.406;2023-06-22T09:35:47;100889.72;;;40.37;nan
44992;BME280;56865;51.618;7.406;2023-06-22T09:38:17;100876.31;;;40.74;nan
44992;BME280;56865;51.618;7.406;2023-06-22T09:40:47;100877.38;;;40.54;nan
44992;BME280;56865;51.618;7.406;2023-06-22T09:43:17;100881.66;;;40.74;nan
44992;BME280;56865;51.618;7.406;2023-06-22T09:45:47;100886.69;;;40.95;nan
44992;BME280;56865;51.618;7.406;2023-06-22T09:48:19;100885.53;;;40.62;nan
44992;BME280;56865;51.618;7.406;2023-06-22T09:50:49;100888.84;;;40.92;nan
44992;BME280;56865;51.618;7.406;2023-06-22T09:53:19;100877.00;;;40.76;nan
44992;BME280;56865;51.618;7.406;2023-06-22T09:55:48;100864.69;;;40.66;nan
44992;BME280;56865;51.618;7.406;2023-06-22T09:58:18;100867.59;;;40.90;nan
44992;BME280;56865;51.618;7.406;2023-06-22T10:00:48;100858.09;;;40.60;nan
44992;BME280;56865;51.618;7.406;2023-06-22T10:03:20;100864.28;;;41.06;nan
44992;BME280;56865;51.618;7.406;2023-06-22T10:05:50;100872.50;;;41.31;nan
44992;BME280;56865;51.618;7.406;2023-06-22T10:08:19;100861.41;;;39.59;nan
44992;BME280;56865;51.618;7.406;2023-06-22T10:10:49;100852.59;;;39.29;nan
44992;BME280;56865;51.618;7.406;2023-06-22T10:13:19;100858.66;;;40.36;nan
44992;BME280;56865;51.618;7.406;2023-06-22T10:15:49;100859.00;;;40.51;nan
44992;BME280;56865;51.618;7.406;2023-06-22T10:18:22;100856.84;;;40.82;nan
44992;BME280;56865;51.618;7.406;2023-06-22T10:20:52;100853.03;;;41.03;nan
44992;BME280;56865;51.618;7.406;2023-06-22T10:23:21;100847.53;;;41.22;nan
44992;BME280;56865;51.618;7.406;2023-06-22T10:25:51;100845.38;;;41.08;nan
44992;BME280;56865;51.618;7.406;2023-06-22T10:28:21;100841.69;;;41.27;nan
44992;BME280;56865;51.618;7.406;2023-06-22T10:30:51;100835.06;;;41.31;nan
44992;BME280;56865;51.618;7.406;2023-06-22T10:33:23;100831.22;;;41.16;nan
44992;BME280;56865;51.618;7.406;2023-06-22T10:35:53;100826.78;;;40.70;nan
44992;BME280;56865;51.618;7.406;2023-06-22T10:38:22;100818.97;;;41.05;nan
44992;BME280;56865;51.618;7.406;2023-06-22T10:40:52;100816.78;;;40.90;nan
44992;BME280;56865;51.618;7.406;2023-06-22T10:43:24;100814.19;;;40.62;nan
44992;BME280;56865;51.618;7.406;2023-06-22T10:45:54;100811.06;;;41.03;nan
44992;BME280;56865;51.618;7.406;2023-06-22T10:48:26;100810.53;;;40.64;nan
44992;BME280;56865;51.618;7.406;2023-06-22T10:50:57;100811.00;;;40.95;nan
44992;BME280;56865;51.618;7.406;2023-06-22T10:53:27;100814.16;;;41.35;nan
44992;BME280;56865;51.618;7.406;2023-06-22T10:55:56;100812.09;;;41.47;nan
44992;BME280;56865;51.618;7.406;2023-06-22T10:58:26;100808.25;;;41.49;nan
44992;BME280;56865;51.618;7.406;2023-06-22T11:00:56;100807.31;;;41.58;nan
44992;BME280;56865;51.618;7.406;2023-06-22T11:03:28;100804.22;;;41.45;nan
44992;BME280;56865;51.618;7.406;2023-06-22T11:05:58;100799.63;;;41.64;nan
44992;BME280;56865;51.618;7.406;2023-06-22T11:08:28;100804.72;;;41.75;nan
44992;BME280;56865;51.618;7.406;2023-06-22T11:10:58;100798.69;;;41.73;nan
44992;BME280;56865;51.618;7.406;2023-06-22T11:13:28;100797.38;;;41.77;nan
44992;BME280;56865;51.618;7.406;2023-06-22T11:15:57;100806.56;;;41.74;nan
44992;BME280;56865;51.618;7.406;2023-06-22T11:18:30;100815.13;;;41.52;nan
44992;BME280;56865;51.618;7.406;2023-06-22T11:21:00;100819.81;;;41.32;nan
44992;BME280;56865;51.618;7.406;2023-06-22T11:23:30;100826.78;;;41.24;nan
44992;BME280;56865;51.618;7.406;2023-06-22T11:26:00;100829.50;;;40.42;nan
44992;BME280;56865;51.618;7.406;2023-06-22T11:28:30;100843.78;;;40.51;nan
44992;BME280;56865;51.618;7.406;2023-06-22T11:31:00;100845.72;;;40.31;nan
44992;BME280;56865;51.618;7.406;2023-06-22T11:33:39;100845.28;;;39.98;nan
44992;BME280;56865;51.618;7.406;2023-06-22T11:36:09;100843.97;;;40.22;nan
44992;BME280;56865;51.618;7.406;2023-06-22T11:38:39;100835.72;;;40.05;nan
44992;BME280;56865;51.618;7.406;2023-06-22T11:41:10;100833.22;;;40.59;nan
44992;BME280;56865;51.618;7.406;2023-06-22T11:43:39;100828.28;;;39.32;nan
44992;BME280;56865;51.618;7.406;2023-06-22T11:46:09;100826.66;;;41.08;nan
44992;BME280;56865;51.618;7.406;2023-06-22T11:48:42;100828.78;;;40.40;nan
44992;BME280;56865;51.618;7.406;2023-06-22T11:51:12;100830.94;;;41.19;nan
44992;BME280;56865;51.618;7.406;2023-06-22T11:53:42;100830.81;;;41.02;nan
44992;BME280;56865;51.618;7.406;2023-06-22T11:56:12;100825.75;;;40.99;nan
44992;BME280;56865;51.618;7.406;2023-06-22T11:58:41;100828.88;;;40.76;nan
44992;BME280;56865;51.618;7.406;2023-06-22T12:01:11;100830.88;;;40.74;nan
44992;BME280;56865;51.618;7.406;2023-06-22T12:03:46;100823.16;;;40.43;nan
44992;BME280;56865;51.618;7.406;2023-06-22T12:06:17;100827.34;;;40.56;nan
44992;BME280;56865;51.618;7.406;2023-06-22T12:08:47;100840.63;;;40.66;nan
44992;BME280;56865;51.618;7.406;2023-06-22T12:11:16;100843.00;;;40.41;nan
44992;BME280;56865;51.618;7.406;2023-06-22T12:13:46;100855.63;;;40.21;nan
44992;BME280;56865;51.618;7.406;2023-06-22T12:16:16;100851.72;;;39.18;nan
44992;BME280;56865;51.618;7.406;2023-06-22T12:18:55;100836.13;;;38.34;nan
44992;BME280;56865;51.618;7.406;2023-06-22T12:21:24;100837.56;;;39.28;nan
44992;BME280;56865;51.618;7.406;2023-06-22T12:23:55;100831.50;;;38.96;nan
44992;BME280;56865;51.618;7.406;2023-06-22T12:26:25;100833.88;;;39.09;nan
44992;BME280;56865;51.618;7.406;2023-06-22T12:28:55;100822.41;;;39.18;nan
44992;BME280;56865;51.618;7.406;2023-06-22T12:31:24;100793.03;;;39.38;nan
44992;BME280;56865;51.618;7.406;2023-06-22T12:33:57;100772.94;;;39.54;nan
44992;BME280;56865;51.618;7.406;2023-06-22T12:36:27;100779.53;;;39.49;nan
44992;BME280;56865;51.618;7.406;2023-06-22T12:38:56;100782.91;;;39.52;nan
44992;BME280;56865;51.618;7.406;2023-06-22T12:41:26;100775.16;;;39.58;nan
44992;BME280;56865;51.618;7.406;2023-06-22T12:43:56;100776.78;;;39.31;nan
44992;BME280;56865;51.618;7.406;2023-06-22T12:46:26;100784.88;;;39.40;nan
44992;BME280;56865;51.618;7.406;2023-06-22T12:48:59;100771.88;;;39.07;nan
44992;BME280;56865;51.618;7.406;2023-06-22T12:51:30;100745.78;;;39.01;nan
44992;BME280;56865;51.618;7.406;2023-06-22T12:54:00;100722.06;;;38.68;nan
44992;BME280;56865;51.618;7.406;2023-06-22T12:56:30;100701.59;;;38.98;nan
44992;BME280;56865;51.618;7.406;2023-06-22T12:58:59;100684.25;;;39.60;nan
44992;BME280;56865;51.618;7.406;2023-06-22T13:01:33;100680.50;;;38.17;nan
44992;BME280;56865;51.618;7.406;2023-06-22T13:04:06;100674.91;;;38.10;nan
44992;BME280;56865;51.618;7.406;2023-06-22T13:06:37;100673.66;;;38.93;nan
44992;BME280;56865;51.618;7.406;2023-06-22T13:09:09;100665.25;;;38.29;nan
44992;BME280;56865;51.618;7.406;2023-06-22T13:11:46;100669.44;;;38.12;nan
44992;BME280;56865;51.618;7.406;2023-06-22T13:14:16;100660.91;;;38.47;nan
44992;BME280;56865;51.618;7.406;2023-06-22T13:16:46;100651.25;;;38.76;nan
44992;BME280;56865;51.618;7.406;2023-06-22T13:19:18;100641.41;;;38.66;nan
44992;BME280;56865;51.618;7.406;2023-06-22T13:21:48;100638.47;;;38.60;nan
44992;BME280;56865;51.618;7.406;2023-06-22T13:24:18;100629.06;;;37.97;nan
44992;BME280;56865;51.618;7.406;2023-06-22T13:26:47;100634.84;;;38.61;nan
44992;BME280;56865;51.618;7.406;2023-06-22T13:29:17;100635.53;;;38.04;nan